Terminal Aerodrome Forecast
Issued by NWS

Current Version | Previous Version | Text Only | Print | Product List | Glossary On
Versions: 1 2 3 4 5 6 7 8 9 10 11 12 13 14 15 16 17 18 19 20 21 22 23
000
FTUS42 KKEY 051138
TAFMTH
TAF
KMTH 051138Z 0512/0612 06008KT P6SM VCSH SCT025 SCT050 OVC080
      TEMPO 0512/0514 09011G16KT 2SM +SHRA BR BKN025
     FM051700 09010KT P6SM SCT020 BKN050 BKN080=

USA.gov is the U.S. government's official web portal to all federal, state and local government web resources and services.